Time;durP1;ratioP1;P1;durP2;ratioP2;P2;SDS_P1;SDS_P2;PMS_P1;PMS_P2;Temp;Humidity;BMP_temperature;BMP_pressure;BME280_temperature;BME280_humidity;BME280_pressure;Samples;Min_cycle;Max_cycle;Signal;HPM_P1;HPM_P2
2022/05/16 00:00:00;;;;;;;;;;;;;;;;;;349881;28;1020;-74
2022/05/16 00:00:13;;;;;;;;;;;;;;;;;;349843;28;818;-74
2022/05/16 00:00:27;;;;;;;;;;;;;;;;;;349833;28;1065;-74
2022/05/16 00:00:38;;;;;;;;;;;;;;;;;;349900;28;889;-74
2022/05/16 00:00:48;;;;;;;;;;;;;;;;;;349909;28;920;-74
2022/05/16 00:00:59;;;;;;;;;;;;;;;;;;349934;28;1003;-74
2022/05/16 00:01:09;;;;;;;;;;;;;;;;;;349919;28;897;-74
2022/05/16 00:01:19;;;;;;;;;;;;;;;;;;349835;28;818;-75
2022/05/16 00:01:30;;;;;;;;;;;;;;;;;;349875;28;976;-74
2022/05/16 00:01:40;;;;;;;;;;;;;;;;;;349930;28;868;-74
2022/05/16 00:01:51;;;;;;;;;;;;;;;;;;349858;28;948;-74
2022/05/16 00:02:02;;;;;;;;;;;;;;;;;;349917;28;841;-74
2022/05/16 00:02:13;;;;;;;;;;;;;;;;;;349744;28;923;-75
2022/05/16 00:02:24;;;;;;;;;;;;;;;;;;349889;28;885;-74
2022/05/16 00:02:34;;;;;;;;;;;;;;;;;;349902;28;1043;-74
2022/05/16 00:02:45;;;;;;;;;;;;;;;;;;349781;28;964;-74
2022/05/16 00:02:56;;;;;;;;;;;;;;;;;;349876;28;995;-74
2022/05/16 00:03:07;;;;;;;;;;;;;;;;;;349888;28;833;-74
2022/05/16 00:03:17;;;;;;;;;;;;;;;;;;349852;28;837;-74
2022/05/16 00:03:28;;;;;;;;;;;;;;;;;;349900;28;913;-74
2022/05/16 00:03:38;;;;;;;;;;;;;;;;;;349886;28;837;-74
2022/05/16 00:03:48;;;;;;;;;;;;;;;;;;349860;28;872;-74
2022/05/16 00:03:59;;;;;;;;;;;;;;;;;;349860;28;1135;-74
2022/05/16 00:04:09;;;;;;;;;;;;;;;;;;349898;28;956;-74
2022/05/16 00:04:20;;;;;;;;;;;;;;;;;;349760;28;861;-74
2022/05/16 00:04:30;;;;;;;;;;;;;;;;;;349892;28;782;-74
2022/05/16 00:04:42;;;;;;;;;;;;;;;;;;349914;28;837;-74
2022/05/16 00:04:53;;;;;;;;;;;;;;;;;;349821;28;838;-75
2022/05/16 00:05:04;;;;;;;;;;;;;;;;;;349846;28;901;-74
2022/05/16 00:05:14;;;;;;;;;;;;;;;;;;349889;28;969;-74
2022/05/16 00:05:25;;;;;;;;;;;;;;;;;;349843;28;878;-74
2022/05/16 00:05:35;;;;;;;;;;;;;;;;;;349873;28;1078;-74
2022/05/16 00:05:45;;;;;;;;;;;;;;;;;;349883;28;880;-74
2022/05/16 00:05:56;;;;;;;;;;;;;;;;;;349840;28;916;-75
2022/05/16 00:06:06;;;;;;;;;;;;;;;;;;349920;28;861;-74
2022/05/16 00:06:17;;;;;;;;;;;;;;;;;;349881;28;825;-74
2022/05/16 00:06:27;;;;;;;;;;;;;;;;;;349789;28;833;-75
2022/05/16 00:06:37;;;;;;;;;;;;;;;;;;349922;28;883;-74
2022/05/16 00:06:48;;;;;;;;;;;;;;;;;;349931;28;802;-74
2022/05/16 00:06:58;;;;;;;;;;;;;;;;;;349781;28;933;-74
2022/05/16 00:07:08;;;;;;;;;;;;;;;;;;349887;28;904;-74
2022/05/16 00:07:20;;;;;;;;;;;;;;;;;;349905;28;896;-74
2022/05/16 00:07:30;;;;;;;;;;;;;;;;;;349714;28;1514;-74
2022/05/16 00:07:41;;;;;;;;;;;;;;;;;;349765;28;1543;-74
2022/05/16 00:07:53;;;;;;;;;;;;;;;;;;349906;28;858;-74
2022/05/16 00:08:03;;;;;;;;;;;;;;;;;;349840;28;909;-74
2022/05/16 00:08:13;;;;;;;;;;;;;;;;;;349921;28;948;-74
2022/05/16 00:08:24;;;;;;;;;;;;;;;;;;349817;28;984;-74
2022/05/16 00:08:34;;;;;;;;;;;;;;;;;;349780;28;875;-74
2022/05/16 00:08:45;;;;;;;;;;;;;;;;;;349850;28;920;-74
2022/05/16 00:08:55;;;;;;;;;;;;;;;;;;349867;28;976;-74
2022/05/16 00:09:05;;;;;;;;;;;;;;;;;;349745;28;893;-74
2022/05/16 00:09:16;;;;;;;;;;;;;;;;;;349817;28;1088;-74
2022/05/16 00:09:26;;;;;;;;;;;;;;;;;;349913;28;928;-74
2022/05/16 00:09:36;;;;;;;;;;;;;;;;;;349752;28;865;-75
2022/05/16 00:09:47;;;;;;;;;;;;;;;;;;349848;28;937;-74
2022/05/16 00:09:57;;;;;;;;;;;;;;;;;;349897;28;933;-74
2022/05/16 00:10:08;;;;;;;;;;;;;;;;;;349776;28;877;-74
2022/05/16 00:10:18;;;;;;;;;;;;;;;;;;349858;28;877;-74
2022/05/16 00:10:29;;;;;;;;;;;;;;;;;;349788;28;1000;-74
2022/05/16 00:10:40;;;;;;;;;;;;;;;;;;348892;28;1376;-74
2022/05/16 00:10:50;;;;;;;;;;;;;;;;;;348873;28;912;-74
2022/05/16 00:11:01;;;;;;;;;;;;;;;;;;348507;28;815;-74
2022/05/16 00:11:11;;;;;;;;;;;;;;;;;;348443;28;1033;-74
2022/05/16 00:11:22;;;;;;;;;;;;;;;;;;348491;28;925;-74
2022/05/16 00:11:32;;;;;;;;;;;;;;;;;;348381;28;1064;-74
2022/05/16 00:11:43;;;;;;;;;;;;;;;;;;348435;28;929;-74
2022/05/16 00:11:53;;;;;;;;;;;;;;;;;;348488;28;952;-74
2022/05/16 00:12:04;;;;;;;;;;;;;;;;;;348390;28;1965;-74
2022/05/16 00:12:15;;;;;;;;;;;;;;;;;;348500;28;916;-74
2022/05/16 00:12:25;;;;;;;;;;;;;;;;;;348423;28;869;-74
2022/05/16 00:12:36;;;;;;;;;;;;;;;;;;348216;28;1455;-74
2022/05/16 00:12:46;;;;;;;;;;;;;;;;;;349174;28;1375;-74
2022/05/16 00:12:59;;;;;;;;;;;;;;;;;;349833;28;1211;-74
2022/05/16 00:13:09;;;;;;;;;;;;;;;;;;349795;28;924;-74
2022/05/16 00:13:21;;;;;;;;;;;;;;;;;;349888;28;872;-74
2022/05/16 00:13:31;;;;;;;;;;;;;;;;;;349866;28;864;-74
2022/05/16 00:13:42;;;;;;;;;;;;;;;;;;349832;28;849;-74
2022/05/16 00:13:52;;;;;;;;;;;;;;;;;;349905;28;936;-74
2022/05/16 00:14:03;;;;;;;;;;;;;;;;;;348933;28;1339;-74
2022/05/16 00:14:13;;;;;;;;;;;;;;;;;;349467;28;1438;-74
2022/05/16 00:14:24;;;;;;;;;;;;;;;;;;349913;28;1931;-74
2022/05/16 00:14:35;;;;;;;;;;;;;;;;;;349856;28;862;-74
2022/05/16 00:14:45;;;;;;;;;;;;;;;;;;349831;28;1055;-74
2022/05/16 00:14:56;;;;;;;;;;;;;;;;;;349819;28;825;-74
2022/05/16 00:15:07;;;;;;;;;;;;;;;;;;349896;28;818;-74
2022/05/16 00:15:19;;;;;;;;;;;;;;;;;;349879;28;870;-74
2022/05/16 00:15:30;;;;;;;;;;;;;;;;;;349902;28;896;-74
2022/05/16 00:15:40;;;;;;;;;;;;;;;;;;349830;28;869;-74
2022/05/16 00:15:51;;;;;;;;;;;;;;;;;;349894;28;884;-74
2022/05/16 00:16:01;;;;;;;;;;;;;;;;;;349907;28;838;-74
2022/05/16 00:16:11;;;;;;;;;;;;;;;;;;349857;28;842;-74
2022/05/16 00:16:22;;;;;;;;;;;;;;;;;;349864;28;802;-74
2022/05/16 00:16:33;;;;;;;;;;;;;;;;;;349912;28;977;-74
2022/05/16 00:16:43;;;;;;;;;;;;;;;;;;349889;28;988;-74
2022/05/16 00:16:53;;;;;;;;;;;;;;;;;;349847;28;825;-74
2022/05/16 00:17:04;;;;;;;;;;;;;;;;;;349787;28;1175;-74
2022/05/16 00:17:14;;;;;;;;;;;;;;;;;;349855;28;848;-74
2022/05/16 00:17:25;;;;;;;;;;;;;;;;;;349880;28;805;-74
2022/05/16 00:17:35;;;;;;;;;;;;;;;;;;349893;28;869;-74
2022/05/16 00:17:46;;;;;;;;;;;;;;;;;;349840;28;845;-74
2022/05/16 00:17:56;;;;;;;;;;;;;;;;;;349848;28;1340;-74
2022/05/16 00:18:06;;;;;;;;;;;;;;;;;;349914;28;857;-74
2022/05/16 00:18:17;;;;;;;;;;;;;;;;;;349875;28;864;-74
2022/05/16 00:18:27;;;;;;;;;;;;;;;;;;349850;28;818;-74
2022/05/16 00:18:38;;;;;;;;;;;;;;;;;;349892;28;794;-74
2022/05/16 00:18:48;;;;;;;;;;;;;;;;;;349601;28;1395;-74
2022/05/16 00:18:58;;;;;;;;;;;;;;;;;;349151;28;1776;-74
2022/05/16 00:19:09;;;;;;;;;;;;;;;;;;349710;28;1471;-74
2022/05/16 00:19:19;;;;;;;;;;;;;;;;;;349817;28;884;-74
2022/05/16 00:19:29;;;;;;;;;;;;;;;;;;349917;28;878;-74
2022/05/16 00:19:40;;;;;;;;;;;;;;;;;;349887;28;903;-74
2022/05/16 00:19:51;;;;;;;;;;;;;;;;;;349848;28;1094;-74
2022/05/16 00:20:01;;;;;;;;;;;;;;;;;;349894;28;955;-74
2022/05/16 00:20:12;;;;;;;;;;;;;;;;;;349957;28;865;-74
2022/05/16 00:20:23;;;;;;;;;;;;;;;;;;349821;28;903;-74
2022/05/16 00:20:33;;;;;;;;;;;;;;;;;;349874;28;848;-74
2022/05/16 00:20:44;;;;;;;;;;;;;;;;;;349894;28;853;-74
2022/05/16 00:20:54;;;;;;;;;;;;;;;;;;349828;28;929;-74
2022/05/16 00:21:04;;;;;;;;;;;;;;;;;;349781;28;950;-74
2022/05/16 00:21:16;;;;;;;;;;;;;;;;;;349855;28;841;-74
2022/05/16 00:21:26;;;;;;;;;;;;;;;;;;349856;28;865;-74
2022/05/16 00:21:37;;;;;;;;;;;;;;;;;;349822;28;864;-74
2022/05/16 00:21:47;;;;;;;;;;;;;;;;;;349872;28;908;-74
2022/05/16 00:21:58;;;;;;;;;;;;;;;;;;349898;28;869;-74
2022/05/16 00:22:09;;;;;;;;;;;;;;;;;;349881;28;916;-74
2022/05/16 00:22:19;;;;;;;;;;;;;;;;;;349766;28;932;-74
2022/05/16 00:22:29;;;;;;;;;;;;;;;;;;349910;28;925;-74
2022/05/16 00:22:40;;;;;;;;;;;;;;;;;;349851;28;996;-74
2022/05/16 00:22:50;;;;;;;;;;;;;;;;;;349838;28;889;-74
2022/05/16 00:23:01;;;;;;;;;;;;;;;;;;349803;28;985;-74
2022/05/16 00:23:11;;;;;;;;;;;;;;;;;;349793;28;896;-74
2022/05/16 00:23:21;;;;;;;;;;;;;;;;;;349795;28;876;-74
2022/05/16 00:23:32;;;;;;;;;;;;;;;;;;349907;28;911;-74
2022/05/16 00:23:42;;;;;;;;;;;;;;;;;;349915;28;833;-74
2022/05/16 00:23:52;;;;;;;;;;;;;;;;;;349790;28;1060;-74
2022/05/16 00:24:03;;;;;;;;;;;;;;;;;;349872;28;909;-74
2022/05/16 00:24:13;;;;;;;;;;;;;;;;;;349843;28;975;-74
2022/05/16 00:24:26;;;;;;;;;;;;;;;;;;349789;28;905;-74
2022/05/16 00:24:41;;;;;;;;;;;;;;;;;;349863;28;833;-74
2022/05/16 00:24:52;;;;;;;;;;;;;;;;;;349811;28;923;-74
2022/05/16 00:25:04;;;;;;;;;;;;;;;;;;349772;28;929;-74
2022/05/16 00:25:17;;;;;;;;;;;;;;;;;;349864;28;821;-74
2022/05/16 00:25:28;;;;;;;;;;;;;;;;;;349768;28;1040;-74
2022/05/16 00:25:38;;;;;;;;;;;;;;;;;;349990;28;1048;-74
2022/05/16 00:25:48;;;;;;;;;;;;;;;;;;349871;28;857;-74
2022/05/16 00:25:59;;;;;;;;;;;;;;;;;;349871;28;825;-74
2022/05/16 00:26:09;;;;;;;;;;;;;;;;;;349885;28;868;-74
2022/05/16 00:26:19;;;;;;;;;;;;;;;;;;349864;28;849;-74
2022/05/16 00:26:30;;;;;;;;;;;;;;;;;;349832;28;865;-74
2022/05/16 00:26:40;;;;;;;;;;;;;;;;;;349911;28;920;-74
2022/05/16 00:26:50;;;;;;;;;;;;;;;;;;349873;28;891;-74
2022/05/16 00:27:01;;;;;;;;;;;;;;;;;;349842;28;904;-74
2022/05/16 00:27:11;;;;;;;;;;;;;;;;;;349825;28;920;-74
2022/05/16 00:27:22;;;;;;;;;;;;;;;;;;350035;28;790;-74
2022/05/16 00:27:34;;;;;;;;;;;;;;;;;;350110;28;1347;-74
2022/05/16 00:27:45;;;;;;;;;;;;;;;;;;350101;28;931;-74
2022/05/16 00:27:55;;;;;;;;;;;;;;;;;;350103;28;916;-74
2022/05/16 00:28:06;;;;;;;;;;;;;;;;;;350179;28;904;-74
2022/05/16 00:28:16;;;;;;;;;;;;;;;;;;350145;28;856;-74
2022/05/16 00:28:26;;;;;;;;;;;;;;;;;;350101;28;905;-74
2022/05/16 00:28:37;;;;;;;;;;;;;;;;;;350143;28;917;-74
2022/05/16 00:28:47;;;;;;;;;;;;;;;;;;350132;28;959;-74
2022/05/16 00:28:58;;;;;;;;;;;;;;;;;;350108;28;848;-74
2022/05/16 00:29:08;;;;;;;;;;;;;;;;;;350090;28;829;-75
2022/05/16 00:29:19;;;;;;;;;;;;;;;;;;350008;28;1187;-74
2022/05/16 00:29:29;;;;;;;;;;;;;;;;;;350138;28;801;-74
2022/05/16 00:29:40;;;;;;;;;;;;;;;;;;350095;28;1068;-74
2022/05/16 00:29:50;;;;;;;;;;;;;;;;;;350040;28;1055;-74
2022/05/16 00:30:05;;;;;;;;;;;;;;;;;;350087;28;1165;-74
2022/05/16 00:30:17;;;;;;;;;;;;;;;;;;350109;28;932;-74
2022/05/16 00:30:27;;;;;;;;;;;;;;;;;;350030;28;1014;-74
2022/05/16 00:30:38;;;;;;;;;;;;;;;;;;350138;28;797;-74
2022/05/16 00:30:48;;;;;;;;;;;;;;;;;;350113;28;941;-74
2022/05/16 00:30:58;;;;;;;;;;;;;;;;;;350112;28;1086;-75
2022/05/16 00:31:09;;;;;;;;;;;;;;;;;;350076;28;1007;-74
2022/05/16 00:31:19;;;;;;;;;;;;;;;;;;350114;28;952;-74
2022/05/16 00:31:30;;;;;;;;;;;;;;;;;;350129;28;845;-74
2022/05/16 00:31:40;;;;;;;;;;;;;;;;;;350144;28;818;-74
2022/05/16 00:31:51;;;;;;;;;;;;;;;;;;350128;28;901;-74
2022/05/16 00:32:02;;;;;;;;;;;;;;;;;;350043;28;1961;-74
2022/05/16 00:32:13;;;;;;;;;;;;;;;;;;350149;28;878;-74
2022/05/16 00:32:24;;;;;;;;;;;;;;;;;;350122;28;802;-74
2022/05/16 00:32:34;;;;;;;;;;;;;;;;;;350094;28;956;-74
2022/05/16 00:32:48;;;;;;;;;;;;;;;;;;350126;28;892;-74
2022/05/16 00:32:58;;;;;;;;;;;;;;;;;;350156;28;864;-74
2022/05/16 00:33:08;;;;;;;;;;;;;;;;;;350059;28;911;-75
2022/05/16 00:33:19;;;;;;;;;;;;;;;;;;349127;28;1361;-74
2022/05/16 00:33:29;;;;;;;;;;;;;;;;;;349381;28;1082;-74
2022/05/16 00:33:41;;;;;;;;;;;;;;;;;;348677;28;858;-74
2022/05/16 00:33:52;;;;;;;;;;;;;;;;;;348926;28;1325;-73
2022/05/16 00:34:02;;;;;;;;;;;;;;;;;;350162;28;896;-74
2022/05/16 00:34:12;;;;;;;;;;;;;;;;;;350056;28;999;-74
2022/05/16 00:34:23;;;;;;;;;;;;;;;;;;350191;28;896;-74
2022/05/16 00:34:33;;;;;;;;;;;;;;;;;;350072;28;983;-74
2022/05/16 00:34:44;;;;;;;;;;;;;;;;;;350058;28;877;-75
2022/05/16 00:34:55;;;;;;;;;;;;;;;;;;350130;28;908;-74
2022/05/16 00:35:06;;;;;;;;;;;;;;;;;;349963;28;1050;-74
2022/05/16 00:35:18;;;;;;;;;;;;;;;;;;350057;28;946;-74
2022/05/16 00:35:28;;;;;;;;;;;;;;;;;;350141;28;928;-74
2022/05/16 00:35:39;;;;;;;;;;;;;;;;;;350017;28;1069;-74
2022/05/16 00:35:49;;;;;;;;;;;;;;;;;;350072;28;862;-74
2022/05/16 00:36:00;;;;;;;;;;;;;;;;;;350150;28;805;-74
2022/05/16 00:36:10;;;;;;;;;;;;;;;;;;350113;28;997;-74
2022/05/16 00:36:20;;;;;;;;;;;;;;;;;;350061;28;917;-74
2022/05/16 00:36:31;;;;;;;;;;;;;;;;;;350123;28;810;-74
2022/05/16 00:36:47;;;;;;;;;;;;;;;;;;350092;28;865;-74
2022/05/16 00:36:57;;;;;;;;;;;;;;;;;;350115;28;818;-74
2022/05/16 00:37:07;;;;;;;;;;;;;;;;;;350116;28;877;-74
2022/05/16 00:37:18;;;;;;;;;;;;;;;;;;350153;28;942;-74
2022/05/16 00:37:28;;;;;;;;;;;;;;;;;;349796;28;1579;-74
2022/05/16 00:37:38;;;;;;;;;;;;;;;;;;349889;28;1743;-74
2022/05/16 00:37:49;;;;;;;;;;;;;;;;;;350092;28;984;-74
2022/05/16 00:37:59;;;;;;;;;;;;;;;;;;349946;28;1468;-73
2022/05/16 00:38:10;;;;;;;;;;;;;;;;;;349986;28;984;-74
2022/05/16 00:38:20;;;;;;;;;;;;;;;;;;350064;28;877;-74
2022/05/16 00:38:30;;;;;;;;;;;;;;;;;;350155;28;863;-74
2022/05/16 00:38:41;;;;;;;;;;;;;;;;;;350049;28;988;-74
2022/05/16 00:38:54;;;;;;;;;;;;;;;;;;350092;28;817;-74
2022/05/16 00:39:04;;;;;;;;;;;;;;;;;;350079;28;1015;-74
2022/05/16 00:39:15;;;;;;;;;;;;;;;;;;350116;28;927;-74
2022/05/16 00:39:25;;;;;;;;;;;;;;;;;;349931;28;1523;-74
2022/05/16 00:39:37;;;;;;;;;;;;;;;;;;350041;28;889;-74
2022/05/16 00:39:47;;;;;;;;;;;;;;;;;;350084;28;880;-74
2022/05/16 00:39:57;;;;;;;;;;;;;;;;;;350137;28;810;-74
2022/05/16 00:40:09;;;;;;;;;;;;;;;;;;350093;28;841;-74
2022/05/16 00:40:20;;;;;;;;;;;;;;;;;;350103;28;935;-74
2022/05/16 00:40:30;;;;;;;;;;;;;;;;;;350123;28;841;-74
2022/05/16 00:40:41;;;;;;;;;;;;;;;;;;350037;28;1055;-74
2022/05/16 00:40:52;;;;;;;;;;;;;;;;;;350015;28;936;-74
2022/05/16 00:41:03;;;;;;;;;;;;;;;;;;350138;28;858;-74
2022/05/16 00:41:13;;;;;;;;;;;;;;;;;;350149;28;885;-74
2022/05/16 00:41:23;;;;;;;;;;;;;;;;;;350112;28;851;-74
2022/05/16 00:41:34;;;;;;;;;;;;;;;;;;350065;28;923;-74
2022/05/16 00:41:44;;;;;;;;;;;;;;;;;;350093;28;844;-74
2022/05/16 00:41:55;;;;;;;;;;;;;;;;;;350084;28;825;-74
2022/05/16 00:42:05;;;;;;;;;;;;;;;;;;350136;28;868;-74
2022/05/16 00:42:18;;;;;;;;;;;;;;;;;;349794;28;1007;-74
2022/05/16 00:42:28;;;;;;;;;;;;;;;;;;350141;28;925;-74
2022/05/16 00:42:39;;;;;;;;;;;;;;;;;;350034;28;969;-74
2022/05/16 00:42:49;;;;;;;;;;;;;;;;;;350103;28;1046;-74
2022/05/16 00:43:07;;;;;;;;;;;;;;;;;;349988;28;1067;-74
2022/05/16 00:43:37;;;;;;;;;;;;;;;;;;350093;28;831;-74
2022/05/16 00:43:58;;;;;;;;;;;;;;;;;;349909;28;888;-74
2022/05/16 00:44:09;;;;;;;;;;;;;;;;;;350059;28;936;-74
2022/05/16 00:44:20;;;;;;;;;;;;;;;;;;350129;28;983;-74
2022/05/16 00:44:33;;;;;;;;;;;;;;;;;;350045;28;914;-74
2022/05/16 00:44:43;;;;;;;;;;;;;;;;;;350088;28;924;-74
2022/05/16 00:44:54;;;;;;;;;;;;;;;;;;350152;28;837;-74
2022/05/16 00:45:05;;;;;;;;;;;;;;;;;;350069;28;932;-74
2022/05/16 00:45:17;;;;;;;;;;;;;;;;;;350005;28;951;-75
2022/05/16 00:45:28;;;;;;;;;;;;;;;;;;350138;28;861;-74
2022/05/16 00:45:39;;;;;;;;;;;;;;;;;;350030;28;1035;-74
2022/05/16 00:45:50;;;;;;;;;;;;;;;;;;350032;28;1020;-74
2022/05/16 00:46:00;;;;;;;;;;;;;;;;;;349982;28;961;-74
2022/05/16 00:46:12;;;;;;;;;;;;;;;;;;350115;28;865;-74
2022/05/16 00:46:23;;;;;;;;;;;;;;;;;;350069;28;908;-74
2022/05/16 00:46:34;;;;;;;;;;;;;;;;;;350082;28;1140;-74
2022/05/16 00:46:45;;;;;;;;;;;;;;;;;;350082;28;913;-75
2022/05/16 00:46:55;;;;;;;;;;;;;;;;;;350111;28;948;-74
2022/05/16 00:47:06;;;;;;;;;;;;;;;;;;350089;28;819;-74
2022/05/16 00:47:16;;;;;;;;;;;;;;;;;;350118;28;806;-74
2022/05/16 00:47:27;;;;;;;;;;;;;;;;;;350076;28;905;-74
2022/05/16 00:47:37;;;;;;;;;;;;;;;;;;349737;28;1388;-74
2022/05/16 00:47:47;;;;;;;;;;;;;;;;;;349689;28;1379;-74
2022/05/16 00:47:58;;;;;;;;;;;;;;;;;;349934;28;1479;-75
2022/05/16 00:48:08;;;;;;;;;;;;;;;;;;350144;28;1083;-74
2022/05/16 00:48:18;;;;;;;;;;;;;;;;;;350146;28;885;-75
2022/05/16 00:48:28;;;;;;;;;;;;;;;;;;350169;28;928;-74
2022/05/16 00:48:38;;;;;;;;;;;;;;;;;;350096;28;1269;-74
2022/05/16 00:48:49;;;;;;;;;;;;;;;;;;350108;28;901;-74
2022/05/16 00:49:00;;;;;;;;;;;;;;;;;;350104;28;1056;-74
2022/05/16 00:49:13;;;;;;;;;;;;;;;;;;350174;28;778;-74
2022/05/16 00:49:28;;;;;;;;;;;;;;;;;;350030;28;1362;-74
2022/05/16 00:49:41;;;;;;;;;;;;;;;;;;350083;28;1001;-74
2022/05/16 00:49:51;;;;;;;;;;;;;;;;;;350165;28;860;-74
2022/05/16 00:50:03;;;;;;;;;;;;;;;;;;350102;28;924;-74
2022/05/16 00:50:13;;;;;;;;;;;;;;;;;;350142;28;896;-74
2022/05/16 00:50:24;;;;;;;;;;;;;;;;;;350118;28;919;-74
2022/05/16 00:50:39;;;;;;;;;;;;;;;;;;350177;28;912;-74
2022/05/16 00:50:49;;;;;;;;;;;;;;;;;;350118;28;1023;-74
2022/05/16 00:51:00;;;;;;;;;;;;;;;;;;350130;28;933;-74
2022/05/16 00:51:13;;;;;;;;;;;;;;;;;;350109;28;777;-74
2022/05/16 00:51:26;;;;;;;;;;;;;;;;;;350117;28;988;-74
2022/05/16 00:51:48;;;;;;;;;;;;;;;;;;350111;28;971;-74
2022/05/16 00:52:00;;;;;;;;;;;;;;;;;;350066;28;912;-74
2022/05/16 00:52:28;;;;;;;;;;;;;;;;;;349977;28;1975;-74
2022/05/16 00:52:40;;;;;;;;;;;;;;;;;;350130;28;987;-74
2022/05/16 00:52:51;;;;;;;;;;;;;;;;;;350045;28;1068;-74
2022/05/16 00:53:01;;;;;;;;;;;;;;;;;;350049;28;964;-74
2022/05/16 00:53:12;;;;;;;;;;;;;;;;;;350135;28;861;-74
2022/05/16 00:53:22;;;;;;;;;;;;;;;;;;350167;28;960;-74
2022/05/16 00:53:32;;;;;;;;;;;;;;;;;;350110;28;901;-74
2022/05/16 00:53:43;;;;;;;;;;;;;;;;;;350084;28;916;-74
2022/05/16 00:53:55;;;;;;;;;;;;;;;;;;350083;28;933;-74
2022/05/16 00:54:09;;;;;;;;;;;;;;;;;;350103;28;984;-74
2022/05/16 00:54:40;;;;;;;;;;;;;;;;;;350060;28;965;-74
2022/05/16 00:54:52;;;;;;;;;;;;;;;;;;349678;28;1130;-74
2022/05/16 00:55:04;;;;;;;;;;;;;;;;;;350099;28;956;-74
2022/05/16 00:55:18;;;;;;;;;;;;;;;;;;350200;28;834;-74
2022/05/16 00:55:31;;;;;;;;;;;;;;;;;;350139;28;979;-74
2022/05/16 00:55:42;;;;;;;;;;;;;;;;;;350100;28;861;-74
2022/05/16 00:55:53;;;;;;;;;;;;;;;;;;350099;28;987;-74
2022/05/16 00:56:04;;;;;;;;;;;;;;;;;;350135;28;834;-74
2022/05/16 00:56:15;;;;;;;;;;;;;;;;;;350155;28;932;-74
2022/05/16 00:56:26;;;;;;;;;;;;;;;;;;350095;28;841;-74
2022/05/16 00:56:37;;;;;;;;;;;;;;;;;;350070;28;976;-74
2022/05/16 00:56:50;;;;;;;;;;;;;;;;;;350086;28;955;-74
2022/05/16 00:57:03;;;;;;;;;;;;;;;;;;350073;28;1003;-74
2022/05/16 00:57:15;;;;;;;;;;;;;;;;;;350092;28;869;-74
2022/05/16 00:57:37;;;;;;;;;;;;;;;;;;350057;28;929;-74
2022/05/16 00:57:50;;;;;;;;;;;;;;;;;;350081;28;944;-74
2022/05/16 00:58:04;;;;;;;;;;;;;;;;;;350095;28;1027;-74
2022/05/16 00:58:16;;;;;;;;;;;;;;;;;;350099;28;826;-74
2022/05/16 00:58:26;;;;;;;;;;;;;;;;;;350069;28;1104;-74
2022/05/16 00:58:39;;;;;;;;;;;;;;;;;;350136;28;1037;-74
2022/05/16 00:58:49;;;;;;;;;;;;;;;;;;350109;28;968;-74
2022/05/16 00:59:00;;;;;;;;;;;;;;;;;;350074;28;888;-74
2022/05/16 00:59:10;;;;;;;;;;;;;;;;;;350089;28;1389;-74
2022/05/16 00:59:23;;;;;;;;;;;;;;;;;;350137;28;809;-74
2022/05/16 00:59:37;;;;;;;;;;;;;;;;;;350100;28;940;-74
2022/05/16 01:00:06;;;;;;;;;;;;;;;;;;349988;28;1189;-74
2022/05/16 01:00:27;;;;;;;;;;;;;;;;;;350111;28;932;-74
2022/05/16 01:00:38;;;;;;;;;;;;;;;;;;350077;28;832;-74
2022/05/16 01:00:48;;;;;;;;;;;;;;;;;;350082;28;845;-74
2022/05/16 01:00:59;;;;;;;;;;;;;;;;;;350156;28;868;-74
2022/05/16 01:04:47;;;;;;;;;;;;;;;;;;350072;28;916;-74
2022/05/16 01:04:55;;;;;;;;;;;;;;;;;;347137;28;964;-74
2022/05/16 01:05:06;;;;;;;;;;;;;;;;;;347177;28;889;-74
2022/05/16 01:05:16;;;;;;;;;;;;;;;;;;347161;28;940;-74
2022/05/16 01:05:27;;;;;;;;;;;;;;;;;;347227;28;889;-74
2022/05/16 01:05:38;;;;;;;;;;;;;;;;;;347222;28;917;-74
2022/05/16 01:05:48;;;;;;;;;;;;;;;;;;347140;28;1004;-74
2022/05/16 01:05:58;;;;;;;;;;;;;;;;;;348509;28;1008;-74
2022/05/16 01:06:08;;;;;;;;;;;;;;;;;;350090;28;967;-74
2022/05/16 01:06:19;;;;;;;;;;;;;;;;;;350146;28;897;-74
2022/05/16 01:06:29;;;;;;;;;;;;;;;;;;350106;28;912;-74
2022/05/16 01:06:39;;;;;;;;;;;;;;;;;;350104;28;899;-74
2022/05/16 01:06:50;;;;;;;;;;;;;;;;;;350061;28;1017;-74
2022/05/16 01:07:02;;;;;;;;;;;;;;;;;;350120;28;920;-74
2022/05/16 01:07:13;;;;;;;;;;;;;;;;;;350097;28;904;-74
2022/05/16 01:07:27;;;;;;;;;;;;;;;;;;350115;28;928;-74
2022/05/16 01:07:40;;;;;;;;;;;;;;;;;;349899;28;1587;-74
2022/05/16 01:07:51;;;;;;;;;;;;;;;;;;349983;28;1468;-74
2022/05/16 01:08:03;;;;;;;;;;;;;;;;;;349925;28;1520;-73
2022/05/16 01:08:15;;;;;;;;;;;;;;;;;;349934;28;1289;-74
2022/05/16 01:08:26;;;;;;;;;;;;;;;;;;349985;28;857;-74
2022/05/16 01:08:39;;;;;;;;;;;;;;;;;;350127;28;789;-74
2022/05/16 01:08:49;;;;;;;;;;;;;;;;;;350000;28;992;-74
2022/05/16 01:08:59;;;;;;;;;;;;;;;;;;350064;28;829;-74
2022/05/16 01:09:10;;;;;;;;;;;;;;;;;;350129;28;956;-74
2022/05/16 01:09:20;;;;;;;;;;;;;;;;;;350058;28;813;-74
2022/05/16 01:09:30;;;;;;;;;;;;;;;;;;350146;28;877;-74
2022/05/16 01:09:41;;;;;;;;;;;;;;;;;;350135;28;979;-74
2022/05/16 01:09:51;;;;;;;;;;;;;;;;;;350074;28;1019;-74
2022/05/16 01:10:03;;;;;;;;;;;;;;;;;;350072;28;886;-74
2022/05/16 01:10:15;;;;;;;;;;;;;;;;;;350048;28;953;-74
2022/05/16 01:10:25;;;;;;;;;;;;;;;;;;350131;28;836;-74
2022/05/16 01:10:36;;;;;;;;;;;;;;;;;;350106;28;872;-74
2022/05/16 01:10:46;;;;;;;;;;;;;;;;;;350035;28;893;-74
2022/05/16 01:10:59;;;;;;;;;;;;;;;;;;350028;28;978;-74
2022/05/16 01:11:11;;;;;;;;;;;;;;;;;;350050;28;913;-74
2022/05/16 01:11:21;;;;;;;;;;;;;;;;;;350083;28;884;-74
2022/05/16 01:11:32;;;;;;;;;;;;;;;;;;349936;28;1090;-74
2022/05/16 01:11:42;;;;;;;;;;;;;;;;;;350065;28;908;-74
2022/05/16 01:11:53;;;;;;;;;;;;;;;;;;350124;28;810;-74
2022/05/16 01:12:04;;;;;;;;;;;;;;;;;;350020;28;1901;-74
2022/05/16 01:12:14;;;;;;;;;;;;;;;;;;350111;28;999;-74
2022/05/16 01:12:30;;;;;;;;;;;;;;;;;;350013;28;853;-74
2022/05/16 01:12:42;;;;;;;;;;;;;;;;;;350073;28;924;-74
2022/05/16 01:12:53;;;;;;;;;;;;;;;;;;350096;28;963;-74
2022/05/16 01:13:04;;;;;;;;;;;;;;;;;;350024;28;825;-74
2022/05/16 01:13:15;;;;;;;;;;;;;;;;;;350088;28;1260;-74
2022/05/16 01:13:26;;;;;;;;;;;;;;;;;;349905;28;1034;-74
2022/05/16 01:13:36;;;;;;;;;;;;;;;;;;350161;28;861;-74
2022/05/16 01:13:46;;;;;;;;;;;;;;;;;;350086;28;852;-74
2022/05/16 01:13:57;;;;;;;;;;;;;;;;;;350112;28;987;-74
2022/05/16 01:14:07;;;;;;;;;;;;;;;;;;350045;28;1067;-74
2022/05/16 01:14:36;;;;;;;;;;;;;;;;;;349953;28;1037;-74
2022/05/16 01:14:50;;;;;;;;;;;;;;;;;;350033;28;1054;-74
2022/05/16 01:15:01;;;;;;;;;;;;;;;;;;350086;28;920;-74
2022/05/16 01:15:14;;;;;;;;;;;;;;;;;;350044;28;853;-74
2022/05/16 01:15:30;;;;;;;;;;;;;;;;;;350047;28;916;-74
2022/05/16 01:15:42;;;;;;;;;;;;;;;;;;350139;28;920;-74
2022/05/16 01:15:53;;;;;;;;;;;;;;;;;;350131;28;964;-74
2022/05/16 01:16:04;;;;;;;;;;;;;;;;;;350103;28;837;-74
2022/05/16 01:16:14;;;;;;;;;;;;;;;;;;350152;28;837;-74
2022/05/16 01:16:24;;;;;;;;;;;;;;;;;;350053;28;920;-74
2022/05/16 01:16:34;;;;;;;;;;;;;;;;;;350115;28;896;-74
2022/05/16 01:16:45;;;;;;;;;;;;;;;;;;350002;28;1062;-75
2022/05/16 01:16:55;;;;;;;;;;;;;;;;;;350099;28;975;-74
2022/05/16 01:17:05;;;;;;;;;;;;;;;;;;350055;28;1089;-74
2022/05/16 01:17:16;;;;;;;;;;;;;;;;;;350066;28;854;-74
2022/05/16 01:17:26;;;;;;;;;;;;;;;;;;350024;28;944;-74
2022/05/16 01:17:37;;;;;;;;;;;;;;;;;;350040;28;996;-74
2022/05/16 01:17:47;;;;;;;;;;;;;;;;;;349026;28;1321;-74
2022/05/16 01:17:58;;;;;;;;;;;;;;;;;;350103;28;1005;-74
2022/05/16 01:18:09;;;;;;;;;;;;;;;;;;350113;28;940;-74
2022/05/16 01:18:21;;;;;;;;;;;;;;;;;;350046;28;941;-74
2022/05/16 01:18:31;;;;;;;;;;;;;;;;;;350041;28;969;-74
2022/05/16 01:18:41;;;;;;;;;;;;;;;;;;350083;28;990;-74
2022/05/16 01:18:51;;;;;;;;;;;;;;;;;;350080;28;1004;-74
2022/05/16 01:19:02;;;;;;;;;;;;;;;;;;350094;28;924;-74
2022/05/16 01:19:12;;;;;;;;;;;;;;;;;;350048;28;896;-74
2022/05/16 01:19:22;;;;;;;;;;;;;;;;;;350033;28;916;-74
2022/05/16 01:19:32;;;;;;;;;;;;;;;;;;350068;28;908;-74
2022/05/16 01:19:42;;;;;;;;;;;;;;;;;;350078;28;972;-74
2022/05/16 01:19:53;;;;;;;;;;;;;;;;;;350158;28;815;-74
2022/05/16 01:20:04;;;;;;;;;;;;;;;;;;350098;28;979;-74
2022/05/16 01:20:14;;;;;;;;;;;;;;;;;;350008;28;1016;-74
2022/05/16 01:20:43;;;;;;;;;;;;;;;;;;349903;28;1038;-74
2022/05/16 01:21:11;;;;;;;;;;;;;;;;;;350103;28;808;-74
2022/05/16 01:21:28;;;;;;;;;;;;;;;;;;349969;28;963;-74
2022/05/16 01:21:40;;;;;;;;;;;;;;;;;;350056;28;1136;-74
2022/05/16 01:21:51;;;;;;;;;;;;;;;;;;350012;28;988;-74
2022/05/16 01:22:08;;;;;;;;;;;;;;;;;;350121;28;849;-74
2022/05/16 01:22:33;;;;;;;;;;;;;;;;;;350133;28;837;-74
2022/05/16 01:22:46;;;;;;;;;;;;;;;;;;350041;28;1012;-75
2022/05/16 01:22:56;;;;;;;;;;;;;;;;;;350091;28;802;-74
2022/05/16 01:23:08;;;;;;;;;;;;;;;;;;350064;28;909;-74
2022/05/16 01:23:20;;;;;;;;;;;;;;;;;;350099;28;983;-74
2022/05/16 01:23:33;;;;;;;;;;;;;;;;;;349826;28;1133;-74
2022/05/16 01:23:47;;;;;;;;;;;;;;;;;;350071;28;792;-74
2022/05/16 01:24:00;;;;;;;;;;;;;;;;;;350055;28;1191;-74
2022/05/16 01:24:14;;;;;;;;;;;;;;;;;;350102;28;861;-74
2022/05/16 01:24:25;;;;;;;;;;;;;;;;;;349970;28;1427;-74
2022/05/16 01:24:36;;;;;;;;;;;;;;;;;;350049;28;885;-74
2022/05/16 01:24:46;;;;;;;;;;;;;;;;;;350087;28;785;-74
2022/05/16 01:24:58;;;;;;;;;;;;;;;;;;350091;28;857;-74
2022/05/16 01:25:11;;;;;;;;;;;;;;;;;;349976;28;1462;-74